Time;durP1;ratioP1;P1;durP2;ratioP2;P2;SDS_P1;SDS_P2;PMS_P1;PMS_P2;Temp;Humidity;BMP_temperature;BMP_pressure;BME280_temperature;BME280_humidity;BME280_pressure;Samples;Min_cycle;Max_cycle;Signal;HPM_P1;HPM_P2
2022/08/28 00:02:13;;;;;;;2.25;1.15;;;;;;;19.98;33.70;101334.19;5070899;28;20079;-85
2022/08/28 00:04:42;;;;;;;3.45;1.35;;;;;;;19.94;33.83;101338.41;5079500;28;20055;-84
2022/08/28 00:07:11;;;;;;;2.85;1.10;;;;;;;19.90;33.72;101331.44;5068140;28;20041;-84
2022/08/28 00:09:39;;;;;;;4.13;1.30;;;;;;;19.89;33.72;101331.63;5063836;28;20095;-84
2022/08/28 00:12:07;;;;;;;3.80;1.30;;;;;;;19.86;33.92;101332.88;5075346;28;20053;-86
2022/08/28 00:14:37;;;;;;;3.53;1.25;;;;;;;19.85;34.09;101339.47;5073019;28;20117;-85
2022/08/28 00:17:05;;;;;;;3.50;1.10;;;;;;;19.82;33.87;101336.19;5076554;28;20499;-85
2022/08/28 00:19:33;;;;;;;4.63;1.30;;;;;;;19.77;34.03;101341.44;5074457;28;20044;-84
2022/08/28 00:22:06;;;;;;;2.58;1.00;;;;;;;19.74;34.03;101348.22;5078931;28;20049;-85
2022/08/28 00:24:35;;;;;;;3.40;1.20;;;;;;;19.73;34.01;101348.41;5075268;28;20126;-84
2022/08/28 00:29:47;;;;;;;3.75;1.30;;;;;;;19.67;34.34;101346.38;5050666;28;20041;-85
2022/08/28 00:32:15;;;;;;;2.70;1.00;;;;;;;19.65;33.88;101346.53;5064966;28;20052;-85
2022/08/28 00:34:43;;;;;;;2.92;1.20;;;;;;;19.62;34.48;101344.16;5064569;28;20678;-85
2022/08/28 00:37:11;;;;;;;2.53;1.13;;;;;;;19.59;34.13;101345.38;5085867;28;20064;-84
2022/08/28 00:39:39;;;;;;;3.55;1.30;;;;;;;19.57;34.41;101349.34;5077490;28;20127;-85
2022/08/28 00:42:10;;;;;;;3.47;1.30;;;;;;;19.57;34.33;101346.59;5085061;28;20094;-84
2022/08/28 00:44:38;;;;;;;3.45;1.40;;;;;;;19.53;34.50;101348.88;5073071;28;20044;-84
2022/08/28 00:47:08;;;;;;;2.88;1.40;;;;;;;19.51;34.58;101344.53;5075242;28;20514;-86
2022/08/28 00:49:45;;;;;;;3.05;1.35;;;;;;;19.49;34.34;101354.94;5065342;28;20407;-85
2022/08/28 00:52:14;;;;;;;5.30;1.50;;;;;;;19.41;34.39;101349.44;5080714;28;20048;-86
2022/08/28 00:54:47;;;;;;;4.00;1.60;;;;;;;19.40;34.58;101342.16;5064991;28;20049;-85
2022/08/28 00:57:29;;;;;;;6.88;1.90;;;;;;;19.34;34.61;101342.88;5068856;28;20045;-86
2022/08/28 00:59:58;;;;;;;3.67;1.90;;;;;;;19.27;34.54;101346.38;5072459;28;20049;-83
2022/08/28 01:02:28;;;;;;;4.72;1.70;;;;;;;19.24;34.44;101343.97;5074232;28;20068;-84
2022/08/28 01:04:56;;;;;;;4.32;1.60;;;;;;;19.17;34.18;101351.25;5077074;28;20053;-84
2022/08/28 01:07:25;;;;;;;4.38;1.90;;;;;;;19.15;34.66;101352.44;5074837;28;20036;-83
2022/08/28 01:09:54;;;;;;;4.53;1.77;;;;;;;19.12;34.55;101350.94;5082880;28;20052;-84
2022/08/28 01:12:26;;;;;;;6.20;2.05;;;;;;;19.05;34.28;101352.66;5072676;28;20131;-84
2022/08/28 01:14:58;;;;;;;5.15;1.95;;;;;;;19.01;34.61;101353.19;5072473;28;20040;-84
2022/08/28 01:17:30;;;;;;;5.25;2.03;;;;;;;18.98;34.84;101348.00;5071129;28;20041;-84
2022/08/28 01:20:01;;;;;;;5.35;2.13;;;;;;;18.92;34.46;101355.13;5074828;28;20050;-84
2022/08/28 01:22:36;;;;;;;5.10;1.73;;;;;;;18.92;34.62;101355.13;5064823;28;20049;-84
2022/08/28 01:25:09;;;;;;;4.25;1.60;;;;;;;18.90;34.84;101363.63;5080982;28;20056;-85
2022/08/28 01:27:40;;;;;;;4.43;2.00;;;;;;;18.86;34.78;101355.84;5064316;28;20426;-85
2022/08/28 01:30:10;;;;;;;4.63;1.98;;;;;;;18.86;34.64;101356.72;5094851;28;20048;-85
2022/08/28 01:32:42;;;;;;;4.85;1.63;;;;;;;18.85;34.71;101363.28;5082302;28;20449;-85
2022/08/28 01:35:16;;;;;;;4.50;1.77;;;;;;;18.82;34.81;101366.41;5087198;28;20102;-85
2022/08/28 01:37:45;;;;;;;3.83;1.80;;;;;;;18.77;34.92;101359.66;5067976;28;20053;-84
2022/08/28 01:40:21;;;;;;;6.22;2.35;;;;;;;18.75;35.19;101367.28;5068902;28;20045;-84
2022/08/28 01:43:15;;;;;;;4.65;1.95;;;;;;;18.66;35.06;101362.78;5068436;28;20042;-85
2022/08/28 01:45:46;;;;;;;4.65;2.00;;;;;;;18.64;34.64;101360.19;5065096;28;20461;-84
2022/08/28 01:48:15;;;;;;;2.80;1.63;;;;;;;18.63;34.92;101364.03;5067667;28;20044;-82
2022/08/28 01:50:44;;;;;;;4.95;2.10;;;;;;;18.60;35.06;101364.38;5077519;28;20048;-82
2022/08/28 01:53:15;;;;;;;4.80;2.05;;;;;;;18.60;34.97;101374.59;5066594;28;20116;-83
2022/08/28 01:55:45;;;;;;;3.70;1.95;;;;;;;18.58;35.27;101376.66;5070492;28;20418;-83
2022/08/28 01:58:13;;;;;;;5.18;2.13;;;;;;;18.57;34.80;101375.81;5067596;28;20115;-83
2022/08/28 02:00:42;;;;;;;5.90;2.13;;;;;;;18.56;34.96;101379.59;5074900;28;20055;-83
2022/08/28 02:03:11;;;;;;;5.32;2.40;;;;;;;18.56;35.33;101376.84;5067475;28;20519;-83
2022/08/28 02:05:43;;;;;;;6.13;2.65;;;;;;;18.56;35.31;101376.84;5070945;28;20044;-83
2022/08/28 02:08:11;;;;;;;5.13;2.10;;;;;;;18.55;35.07;101377.03;5058352;28;20172;-83
2022/08/28 02:10:42;;;;;;;4.88;2.10;;;;;;;18.57;35.52;101377.72;5075023;28;20048;-84
2022/08/28 02:13:12;;;;;;;5.13;2.20;;;;;;;18.56;35.36;101374.06;5069754;28;20136;-84
2022/08/28 02:15:42;;;;;;;6.15;2.28;;;;;;;18.52;35.62;101368.03;5057910;28;20049;-84
2022/08/28 02:18:13;;;;;;;4.22;2.25;;;;;;;18.50;35.41;101374.78;5077997;28;20041;-84
2022/08/28 02:20:41;;;;;;;6.13;2.38;;;;;;;18.50;35.41;101378.41;5033987;28;20423;-83
2022/08/28 02:23:12;;;;;;;6.25;2.70;;;;;;;18.49;35.13;101386.91;5066242;28;20040;-84
2022/08/28 02:25:41;;;;;;;6.03;2.53;;;;;;;18.48;35.28;101398.97;5070624;28;20040;-84
2022/08/28 02:28:11;;;;;;;5.47;2.40;;;;;;;18.47;35.25;101398.13;5057635;28;20041;-84
2022/08/28 02:30:41;;;;;;;6.15;2.83;;;;;;;18.42;35.31;101394.13;5066418;28;20036;-84
2022/08/28 02:33:09;;;;;;;6.45;2.50;;;;;;;18.41;35.57;101400.72;5058829;28;20043;-83
2022/08/28 02:35:39;;;;;;;5.20;2.50;;;;;;;18.38;35.27;101404.72;5080116;28;20107;-83
2022/08/28 02:38:07;;;;;;;5.28;2.72;;;;;;;18.36;35.17;101408.69;5085608;28;22212;-83
2022/08/28 02:40:35;;;;;;;7.18;2.95;;;;;;;18.34;35.25;101411.63;5070960;28;20737;-83
2022/08/28 02:43:04;;;;;;;5.65;2.47;;;;;;;18.31;35.65;101409.19;5076187;28;20082;-83
2022/08/28 02:45:33;;;;;;;6.20;2.60;;;;;;;18.31;35.32;101405.56;5072198;28;20068;-83
2022/08/28 02:48:02;;;;;;;4.93;2.28;;;;;;;18.27;35.43;101412.50;5065778;28;20045;-83
2022/08/28 02:50:31;;;;;;;6.55;3.03;;;;;;;18.24;35.95;101413.69;5072028;28;20610;-83
2022/08/28 02:52:59;;;;;;;4.43;2.35;;;;;;;18.23;35.78;101416.63;5070058;28;20552;-83
2022/08/28 02:55:28;;;;;;;5.43;2.42;;;;;;;18.21;35.90;101407.66;5071590;28;20127;-82
2022/08/28 02:58:01;;;;;;;4.35;2.30;;;;;;;18.18;35.56;101407.97;5071174;28;20643;-84
2022/08/28 03:00:29;;;;;;;6.05;2.40;;;;;;;18.17;35.73;101400.69;5067480;28;20114;-84
2022/08/28 03:02:58;;;;;;;7.07;2.55;;;;;;;18.17;36.19;101406.25;5063733;28;20049;-84
2022/08/28 03:05:26;;;;;;;5.80;2.30;;;;;;;18.10;35.80;101401.38;5069302;28;20045;-83
2022/08/28 03:07:55;;;;;;;5.65;2.85;;;;;;;18.09;35.65;101401.56;5061004;28;20051;-84
2022/08/28 03:10:23;;;;;;;6.25;2.35;;;;;;;18.08;35.90;101400.69;5071892;28;20044;-84
2022/08/28 03:12:52;;;;;;;5.55;2.47;;;;;;;18.04;36.08;101403.97;5075629;28;20067;-83
2022/08/28 03:15:21;;;;;;;5.35;2.75;;;;;;;18.03;35.90;101416.09;5064174;28;20037;-83
2022/08/28 03:17:49;;;;;;;5.80;2.70;;;;;;;18.00;35.91;101417.28;5062069;28;20048;-84
2022/08/28 03:20:19;;;;;;;5.85;2.60;;;;;;;18.01;36.29;101430.09;5062465;28;20507;-84
2022/08/28 03:25:33;;;;;;;6.18;2.65;;;;;;;17.93;36.19;101429.22;5054859;28;20510;-84
2022/08/28 03:28:01;;;;;;;5.70;2.70;;;;;;;17.93;36.08;101426.44;5067993;28;20507;-83
2022/08/28 03:30:29;;;;;;;7.30;2.90;;;;;;;17.91;36.27;101426.59;5070078;28;20482;-83
2022/08/28 03:32:57;;;;;;;6.90;2.75;;;;;;;17.88;35.96;101426.09;5073556;28;20045;-84
2022/08/28 03:35:27;;;;;;;7.28;2.72;;;;;;;17.88;36.29;101426.09;5070364;28;20064;-83
2022/08/28 03:37:55;;;;;;;7.20;2.80;;;;;;;17.85;36.42;101431.97;5083115;28;20567;-83
2022/08/28 03:40:23;;;;;;;5.32;2.75;;;;;;;17.84;36.33;101442.16;5075616;28;20047;-83
2022/08/28 03:42:51;;;;;;;5.95;2.90;;;;;;;17.83;36.71;101439.56;5073797;28;20556;-83
2022/08/28 03:45:21;;;;;;;6.45;2.70;;;;;;;17.82;36.22;101447.00;5073574;28;20079;-84
2022/08/28 03:47:49;;;;;;;6.60;2.58;;;;;;;17.80;36.56;101443.56;5075796;28;20109;-83
2022/08/28 03:50:18;;;;;;;5.30;2.33;;;;;;;17.81;36.38;101447.19;5086305;28;20048;-83
2022/08/28 03:52:48;;;;;;;7.40;3.25;;;;;;;17.79;36.14;101450.13;5065974;28;20056;-83
2022/08/28 03:55:17;;;;;;;6.90;2.88;;;;;;;17.76;36.29;101447.66;5073257;28;20071;-83
2022/08/28 03:57:46;;;;;;;6.28;2.90;;;;;;;17.75;36.79;101451.47;5074530;28;20072;-83
2022/08/28 04:00:15;;;;;;;6.18;2.92;;;;;;;17.71;36.57;101455.59;5074437;28;20546;-83
2022/08/28 04:02:44;;;;;;;7.85;2.83;;;;;;;17.69;36.33;101452.97;5072451;28;20045;-84
2022/08/28 04:05:14;;;;;;;5.07;2.35;;;;;;;17.69;36.61;101457.66;5070297;28;20063;-82
2022/08/28 04:07:42;;;;;;;7.75;2.80;;;;;;;17.67;36.39;101456.94;5073783;28;20110;-83
2022/08/28 04:10:12;;;;;;;5.70;2.42;;;;;;;17.67;36.66;101452.28;5070658;28;20048;-83
2022/08/28 04:12:40;;;;;;;4.70;2.50;;;;;;;17.65;36.48;101459.88;5071047;28;20138;-83
2022/08/28 04:15:09;;;;;;;7.63;2.70;;;;;;;17.66;36.84;101460.75;5074027;28;20076;-83
2022/08/28 04:17:38;;;;;;;6.32;2.78;;;;;;;17.65;36.89;101465.41;5067422;28;20542;-84
2022/08/28 04:20:08;;;;;;;7.75;3.10;;;;;;;17.63;36.56;101461.09;5076564;28;20154;-84
2022/08/28 04:22:37;;;;;;;6.63;2.50;;;;;;;17.62;36.82;101468.53;5075033;28;20040;-85
2022/08/28 04:25:06;;;;;;;7.10;2.78;;;;;;;17.63;36.92;101461.09;5073263;28;20543;-83
2022/08/28 04:27:36;;;;;;;5.80;2.65;;;;;;;17.62;36.97;101476.81;5073991;28;20055;-83
2022/08/28 04:30:05;;;;;;;6.07;2.55;;;;;;;17.59;36.61;101474.38;5066253;28;20044;-83
2022/08/28 04:32:37;;;;;;;5.38;2.40;;;;;;;17.58;37.02;101480.94;5076306;28;20048;-83
2022/08/28 04:35:08;;;;;;;6.30;2.78;;;;;;;17.59;36.91;101473.50;5073323;28;20052;-84
2022/08/28 04:37:39;;;;;;;5.88;2.70;;;;;;;17.59;37.30;101479.91;5081193;28;20102;-84
2022/08/28 04:40:09;;;;;;;6.10;2.58;;;;;;;17.58;37.36;101480.06;5073757;28;20044;-83
2022/08/28 04:42:39;;;;;;;5.55;2.50;;;;;;;17.59;36.67;101481.81;5065692;28;20036;-84
2022/08/28 04:45:08;;;;;;;6.47;2.90;;;;;;;17.57;36.89;101481.09;5068589;28;20044;-84
2022/08/28 04:47:37;;;;;;;5.65;2.60;;;;;;;17.56;36.62;101483.03;5075919;28;20090;-84
2022/08/28 04:50:07;;;;;;;6.55;2.53;;;;;;;17.57;37.20;101484.75;5089372;28;20052;-84
2022/08/28 04:52:35;;;;;;;5.50;2.63;;;;;;;17.55;36.84;101475.75;5057456;28;20045;-84
2022/08/28 04:55:04;;;;;;;6.40;2.88;;;;;;;17.56;36.99;101496.00;5070539;28;20045;-84
2022/08/28 04:57:32;;;;;;;6.03;2.75;;;;;;;17.53;37.37;101483.34;5082055;28;20055;-84
2022/08/28 05:00:07;;;;;;;5.30;2.40;;;;;;;17.54;36.98;101496.16;5085502;28;20041;-84
2022/08/28 05:02:36;;;;;;;5.40;2.00;;;;;;;17.49;37.38;101492.13;5073470;28;20037;-84
2022/08/28 05:05:04;;;;;;;7.43;2.75;;;;;;;17.49;36.92;101493.00;5082188;28;20044;-84
2022/08/28 05:07:33;;;;;;;6.10;2.47;;;;;;;17.50;37.23;101491.97;5076903;28;20454;-84
2022/08/28 05:10:02;;;;;;;5.25;2.25;;;;;;;17.48;37.05;101499.59;5072684;28;20503;-84
2022/08/28 05:12:31;;;;;;;6.25;2.80;;;;;;;17.49;37.21;101503.19;5067028;28;20068;-84
2022/08/28 05:14:59;;;;;;;5.47;2.33;;;;;;;17.49;37.27;101505.97;5072580;28;20048;-84
2022/08/28 05:17:39;;;;;;;5.55;2.58;;;;;;;17.51;37.58;101501.16;5069347;28;20039;-84
2022/08/28 05:20:08;;;;;;;4.85;2.20;;;;;;;17.51;37.35;101502.00;5073228;28;20094;-84
2022/08/28 05:22:36;;;;;;;4.40;2.03;;;;;;;17.52;37.26;101506.53;5074046;28;20048;-83
2022/08/28 05:25:04;;;;;;;6.78;2.50;;;;;;;17.52;37.21;101506.53;5075604;28;20052;-83
2022/08/28 05:27:34;;;;;;;4.82;1.90;;;;;;;17.54;37.32;101509.13;5069443;28;20036;-84
2022/08/28 05:30:02;;;;;;;6.00;2.15;;;;;;;17.55;37.42;101513.63;5081913;28;20449;-84
2022/08/28 05:32:30;;;;;;;5.22;2.38;;;;;;;17.56;37.45;101516.25;5103108;28;20045;-84
2022/08/28 05:35:00;;;;;;;5.13;2.28;;;;;;;17.58;37.51;101522.47;5079598;28;20110;-84
2022/08/28 05:37:28;;;;;;;6.45;2.38;;;;;;;17.55;37.63;101521.94;5077607;28;20044;-83
2022/08/28 05:39:56;;;;;;;4.75;2.60;;;;;;;17.56;37.25;101524.56;5076572;28;20048;-83
2022/08/28 05:42:24;;;;;;;5.35;2.40;;;;;;;17.55;37.42;101521.94;5073253;28;20036;-83
2022/08/28 05:44:58;;;;;;;5.40;2.30;;;;;;;17.53;37.77;101513.78;5079441;28;20044;-84
2022/08/28 05:47:27;;;;;;;5.38;2.10;;;;;;;17.52;37.25;101522.25;5072300;28;20102;-84
2022/08/28 05:49:55;;;;;;;4.72;2.10;;;;;;;17.52;37.83;101517.59;5064351;28;20041;-84
2022/08/28 05:52:24;;;;;;;6.80;2.47;;;;;;;17.51;37.23;101518.63;5071764;28;20059;-83
2022/08/28 05:54:52;;;;;;;6.97;2.15;;;;;;;17.47;37.28;101530.19;5071477;28;20045;-83
2022/08/28 05:57:21;;;;;;;5.15;2.15;;;;;;;17.47;37.37;101532.97;5087143;28;20044;-83
2022/08/28 05:59:50;;;;;;;4.60;2.10;;;;;;;17.46;37.80;101525.69;5070744;28;20036;-84
2022/08/28 06:02:18;;;;;;;5.60;2.42;;;;;;;17.43;37.62;101531.53;5071081;28;20036;-84
2022/08/28 06:04:47;;;;;;;6.68;2.00;;;;;;;17.43;37.49;101534.31;5071325;28;20060;-83
2022/08/28 06:07:16;;;;;;;6.35;2.05;;;;;;;17.42;37.57;101535.34;5073479;28;20051;-83
2022/08/28 06:09:45;;;;;;;5.35;2.40;;;;;;;17.44;37.41;101542.44;5068513;28;20037;-84
2022/08/28 06:12:14;;;;;;;5.03;2.30;;;;;;;17.38;37.79;101538.44;5065309;28;20103;-83
2022/08/28 06:14:42;;;;;;;5.15;2.15;;;;;;;17.40;37.87;101541.06;5071218;28;20454;-84
2022/08/28 06:17:11;;;;;;;5.07;2.10;;;;;;;17.39;37.69;101539.31;5071827;28;20044;-83
2022/08/28 06:19:39;;;;;;;6.18;2.25;;;;;;;17.41;37.82;101542.75;5061893;28;20491;-83
2022/08/28 06:22:10;;;;;;;4.50;2.08;;;;;;;17.42;37.58;101538.97;5081361;28;20134;-83
2022/08/28 06:24:39;;;;;;;6.40;2.22;;;;;;;17.44;37.71;101547.97;5081421;28;20494;-84
2022/08/28 06:27:08;;;;;;;3.95;1.73;;;;;;;17.50;37.90;101543.69;5071897;28;20488;-84
2022/08/28 06:29:43;;;;;;;4.30;1.92;;;;;;;17.49;37.67;101553.88;5095761;28;20097;-87
2022/08/28 06:32:12;;;;;;;4.28;1.98;;;;;;;17.52;37.97;101549.94;5067754;28;20091;-87
2022/08/28 06:34:40;;;;;;;4.72;2.20;;;;;;;17.56;37.51;101555.00;5071311;28;20124;-86
2022/08/28 06:37:09;;;;;;;4.03;1.63;;;;;;;17.59;37.74;101560.19;5067506;28;20044;-85
2022/08/28 06:39:37;;;;;;;5.10;2.42;;;;;;;17.59;37.81;101560.19;5068004;28;20094;-81
2022/08/28 06:42:05;;;;;;;6.47;2.28;;;;;;;17.59;37.99;101556.53;5063228;28;20044;-81
2022/08/28 06:44:37;;;;;;;3.90;1.95;;;;;;;17.67;37.41;101562.13;5071056;28;20090;-83
2022/08/28 06:47:05;;;;;;;5.70;2.15;;;;;;;17.65;37.84;101556.75;5056338;28;20064;-82
2022/08/28 06:49:34;;;;;;;6.35;2.28;;;;;;;17.62;37.54;101556.22;5061783;28;20131;-83
2022/08/28 06:52:02;;;;;;;5.20;2.10;;;;;;;17.67;37.69;101562.13;5071869;28;20064;-83
2022/08/28 06:54:31;;;;;;;4.78;2.00;;;;;;;17.68;37.89;101566.66;5071420;28;20466;-83
2022/08/28 06:56:59;;;;;;;5.47;2.15;;;;;;;17.67;37.88;101564.91;5077287;28;20036;-86
2022/08/28 06:59:27;;;;;;;5.20;1.85;;;;;;;17.73;37.60;101559.56;5070026;28;20041;-85
2022/08/28 07:01:57;;;;;;;5.63;2.22;;;;;;;17.79;38.14;101565.53;5068788;28;20076;-85
2022/08/28 07:04:26;;;;;;;5.07;2.13;;;;;;;17.83;37.75;101570.56;5062911;28;20135;-86
2022/08/28 07:06:54;;;;;;;5.43;2.10;;;;;;;17.90;37.68;101563.31;5065514;28;20436;-84
2022/08/28 07:09:23;;;;;;;6.70;2.10;;;;;;;17.99;37.75;101558.69;5070356;28;20076;-85
2022/08/28 07:11:51;;;;;;;4.35;1.88;;;;;;;18.08;37.75;101560.47;5069150;28;20041;-84
2022/08/28 07:14:20;;;;;;;4.78;1.88;;;;;;;18.21;37.83;101560.03;5080814;28;20060;-86
2022/08/28 07:16:48;;;;;;;5.30;1.80;;;;;;;18.35;38.21;101571.31;5071578;28;20056;-86
2022/08/28 07:19:17;;;;;;;4.82;1.80;;;;;;;18.55;38.01;101579.41;5080024;28;20076;-84
2022/08/28 07:21:46;;;;;;;7.95;2.30;;;;;;;18.72;37.82;101578.41;5074142;28;20041;-82
2022/08/28 07:24:16;;;;;;;6.82;2.30;;;;;;;18.96;37.39;101580.34;5077993;28;20058;-83
2022/08/28 07:26:46;;;;;;;4.00;1.90;;;;;;;19.17;37.31;101576.00;5074156;28;20040;-83
2022/08/28 07:29:14;;;;;;;5.32;1.88;;;;;;;19.39;37.07;101577.22;5076090;28;20466;-84
2022/08/28 07:31:45;;;;;;;6.28;1.90;;;;;;;19.64;36.57;101578.94;5073221;28;20130;-86
2022/08/28 07:34:15;;;;;;;4.35;1.95;;;;;;;19.86;36.06;101576.47;5083659;28;20045;-84
2022/08/28 07:36:45;;;;;;;5.35;1.90;;;;;;;20.10;35.26;101578.31;5070890;28;20063;-84
2022/08/28 07:39:14;;;;;;;4.93;1.77;;;;;;;20.24;35.34;101589.53;5071944;28;20048;-84
2022/08/28 07:41:42;;;;;;;5.90;2.25;;;;;;;20.40;34.95;101585.81;5084077;28;20040;-84
2022/08/28 07:47:01;;;;;;;6.80;2.00;;;;;;;20.66;34.08;101582.75;5067924;28;20041;-84
2022/08/28 07:49:30;;;;;;;4.95;1.92;;;;;;;20.73;34.03;101586.53;5067325;28;20043;-67
2022/08/28 07:52:00;;;;;;;4.10;1.90;;;;;;;20.82;33.54;101585.44;5066945;28;20041;-68
2022/08/28 07:54:28;;;;;;;5.53;1.90;;;;;;;20.88;33.65;101584.69;5062404;28;20044;-67
2022/08/28 07:56:56;;;;;;;3.88;1.90;;;;;;;20.89;32.76;101577.22;5067227;28;20139;-67
2022/08/28 07:59:24;;;;;;;7.10;2.25;;;;;;;20.96;33.12;101583.75;5069472;28;20059;-69
2022/08/28 08:01:52;;;;;;;5.75;2.20;;;;;;;20.96;33.01;101583.75;5064654;28;20070;-69
2022/08/28 08:04:22;;;;;;;5.75;2.00;;;;;;;20.99;32.56;101586.19;5063584;28;20057;-69
2022/08/28 08:06:52;;;;;;;4.20;1.92;;;;;;;20.94;32.66;101586.75;5065415;28;20079;-70
2022/08/28 08:09:26;;;;;;;4.15;1.75;;;;;;;20.98;32.84;101590.88;5067061;28;20573;-68
2022/08/28 08:11:56;;;;;;;4.10;1.70;;;;;;;20.94;32.22;101589.53;5065630;28;20554;-68
2022/08/28 08:14:25;;;;;;;4.30;1.80;;;;;;;20.94;32.60;101597.88;5067708;28;20045;-70
2022/08/28 08:16:54;;;;;;;5.82;2.10;;;;;;;20.92;32.41;101602.75;5066132;28;20114;-70
2022/08/28 08:19:22;;;;;;;4.88;2.05;;;;;;;20.86;32.34;101592.34;5063250;28;20094;-69
2022/08/28 08:21:52;;;;;;;6.60;1.98;;;;;;;20.84;32.29;101597.25;5066183;28;20106;-70
2022/08/28 08:24:24;;;;;;;4.10;1.90;;;;;;;20.82;32.51;101598.47;5067462;28;20042;-70
2022/08/28 08:26:57;;;;;;;4.80;1.88;;;;;;;20.77;32.16;101599.91;5072490;28;20100;-69
2022/08/28 08:29:30;;;;;;;4.75;2.00;;;;;;;20.68;31.97;101595.44;5071347;28;20502;-70
2022/08/28 08:32:04;;;;;;;5.47;2.08;;;;;;;20.64;32.09;101596.84;5069454;28;20033;-70
2022/08/28 08:34:34;;;;;;;4.53;1.85;;;;;;;20.59;32.12;101598.44;5071196;28;20045;-70
2022/08/28 08:37:04;;;;;;;4.47;1.80;;;;;;;20.56;32.07;101596.00;5072680;28;20064;-69
2022/08/28 08:39:33;;;;;;;6.97;2.40;;;;;;;20.48;32.15;101598.81;5065317;28;20045;-70
2022/08/28 08:42:08;;;;;;;7.07;2.30;;;;;;;20.44;31.56;101598.31;5068537;28;20566;-71
2022/08/28 08:44:41;;;;;;;5.15;1.80;;;;;;;20.39;31.59;101596.06;5063380;28;20140;-70
2022/08/28 08:47:11;;;;;;;;;;;;;;;20.01;31.66;101599.72;5072979;28;20039;-71
2022/08/28 08:49:49;;;;;;;4.63;1.70;;;;;;;20.27;32.29;101597.53;5072711;28;19920;-72
2022/08/28 08:52:36;;;;;;;6.22;2.17;;;;;;;20.25;31.77;101598.75;5071748;28;20674;-72
2022/08/28 08:55:22;;;;;;;4.03;2.08;;;;;;;20.28;31.50;101599.25;5070882;28;20403;-71
2022/08/28 08:57:58;;;;;;;4.78;1.77;;;;;;;20.29;31.82;101598.19;5068837;28;20037;-70
2022/08/28 09:00:28;;;;;;;4.43;1.63;;;;;;;20.30;32.28;101599.06;5068131;28;20047;-69
2022/08/28 09:03:06;;;;;;;4.15;1.63;;;;;;;20.40;31.99;101592.25;5071700;28;20051;-69
2022/08/28 09:05:47;;;;;;;4.35;1.75;;;;;;;20.46;31.52;101593.44;5068264;28;20039;-69
2022/08/28 09:08:30;;;;;;;4.93;1.70;;;;;;;20.53;31.09;101602.78;5068892;28;20479;-70
2022/08/28 09:11:06;;;;;;;3.83;1.67;;;;;;;20.58;32.29;101591.97;5071593;28;20055;-69
2022/08/28 09:13:49;;;;;;;4.55;2.05;;;;;;;20.67;31.05;101596.50;5063669;28;20044;-69
2022/08/28 09:16:26;;;;;;;6.15;2.25;;;;;;;20.75;31.96;101596.44;5070212;28;20045;-70
2022/08/28 09:18:57;;;;;;;4.55;2.10;;;;;;;20.84;31.70;101608.38;5071467;28;20135;-70
2022/08/28 09:21:28;;;;;;;4.47;1.70;;;;;;;20.92;31.82;101608.31;5058006;28;20441;-70
2022/08/28 09:24:02;;;;;;;5.85;2.30;;;;;;;20.93;31.38;101610.06;5070120;28;20110;-70
2022/08/28 09:26:35;;;;;;;5.38;2.00;;;;;;;21.07;31.24;101609.25;5075102;28;20051;-71
2022/08/28 09:29:08;;;;;;;4.35;2.00;;;;;;;21.21;31.24;101609.47;5068936;28;20450;-70
2022/08/28 09:31:39;;;;;;;6.90;2.17;;;;;;;21.25;30.97;101608.94;5071529;28;20044;-71
2022/08/28 09:34:25;;;;;;;5.27;1.90;;;;;;;21.37;30.55;101623.31;5067252;28;20044;-69
2022/08/28 09:36:55;;;;;;;4.03;1.75;;;;;;;21.43;31.09;101622.59;5069299;28;20068;-70
2022/08/28 09:39:27;;;;;;;4.82;2.00;;;;;;;21.59;31.03;101610.41;5063836;28;20041;-69
2022/08/28 09:44:56;;;;;;;4.70;1.95;;;;;;;21.82;30.77;101611.22;5069644;28;20126;-70
2022/08/28 09:47:47;;;;;;;5.20;1.90;;;;;;;21.95;30.32;101619.81;5069167;28;20127;-69
2022/08/28 09:50:25;;;;;;;4.97;2.10;;;;;;;22.09;30.17;101615.31;5067350;28;20102;-69
2022/08/28 09:52:59;;;;;;;5.93;2.15;;;;;;;22.18;30.47;101615.00;5070315;28;20050;-67
2022/08/28 09:55:36;;;;;;;6.88;2.20;;;;;;;22.26;28.70;101623.28;5065750;28;20075;-72
2022/08/28 09:58:05;;;;;;;5.43;1.95;;;;;;;22.27;29.07;101610.19;5058843;28;20055;-71
2022/08/28 10:00:40;;;;;;;4.65;1.80;;;;;;;22.38;28.69;101608.84;5069588;28;20044;-71
2022/08/28 10:03:15;;;;;;;3.92;1.70;;;;;;;22.44;29.18;101616.44;5070766;28;20052;-71
2022/08/28 10:05:56;;;;;;;3.90;1.85;;;;;;;22.47;28.44;101600.19;5067902;28;20052;-71
2022/08/28 10:08:39;;;;;;;4.90;2.08;;;;;;;22.49;27.90;101605.56;5067609;28;20108;-72
2022/08/28 10:11:19;;;;;;;3.83;1.75;;;;;;;22.56;28.31;101604.63;5070697;28;20048;-71
2022/08/28 10:13:57;;;;;;;4.93;1.80;;;;;;;22.62;28.78;101601.03;5068753;28;20063;-72
2022/08/28 10:16:33;;;;;;;5.93;1.83;;;;;;;22.71;28.45;101604.59;5069779;28;20036;-72
2022/08/28 10:19:08;;;;;;;6.70;1.77;;;;;;;22.76;27.65;101609.56;5065052;28;20060;-72
2022/08/28 10:21:45;;;;;;;5.25;1.92;;;;;;;22.75;26.46;101605.06;5065015;28;20114;-71
2022/08/28 10:24:27;;;;;;;4.00;1.70;;;;;;;22.84;27.24;101596.34;5071616;28;20048;-71
2022/08/28 10:27:08;;;;;;;4.97;2.10;;;;;;;22.85;27.24;101606.47;5070955;28;20158;-71
2022/08/28 10:29:48;;;;;;;3.33;1.40;;;;;;;22.86;26.87;101593.38;5066806;28;20048;-72
2022/08/28 10:32:39;;;;;;;3.92;1.75;;;;;;;22.87;26.04;101595.97;5061298;28;20483;-72
2022/08/28 10:35:13;;;;;;;4.70;2.00;;;;;;;22.83;26.53;101602.16;5066428;28;20049;-72
2022/08/28 10:37:53;;;;;;;4.75;2.10;;;;;;;22.83;26.15;101608.59;5070218;28;20475;-72
2022/08/28 10:40:26;;;;;;;4.85;1.70;;;;;;;22.88;27.07;101611.66;5080575;28;20040;-72
2022/08/28 10:43:02;;;;;;;3.47;1.55;;;;;;;22.93;26.77;101599.88;5069834;28;20085;-72
2022/08/28 10:45:33;;;;;;;5.60;1.85;;;;;;;22.97;27.22;101609.63;5069007;28;20040;-72
2022/08/28 10:48:08;;;;;;;3.10;1.42;;;;;;;23.04;27.53;101602.16;5070248;28;20473;-72
2022/08/28 10:50:43;;;;;;;3.45;1.75;;;;;;;23.10;27.26;101603.28;5070296;28;20051;-72
2022/08/28 10:53:17;;;;;;;3.63;1.52;;;;;;;23.19;27.04;101608.59;5069932;28;20036;-72
2022/08/28 10:55:53;;;;;;;4.47;1.77;;;;;;;23.29;26.82;101606.31;5069651;28;20094;-72
2022/08/28 10:58:24;;;;;;;4.40;1.50;;;;;;;23.37;27.15;101603.38;5063492;28;20084;-73
2022/08/28 11:00:56;;;;;;;4.50;1.75;;;;;;;23.46;27.38;101604.13;5066246;28;20040;-72
2022/08/28 11:03:28;;;;;;;4.65;1.67;;;;;;;23.58;27.30;101610.88;5063748;28;20052;-73
2022/08/28 11:06:10;;;;;;;3.65;1.92;;;;;;;23.72;27.21;101604.34;5069828;28;20475;-72
2022/08/28 11:08:39;;;;;;;3.45;1.40;;;;;;;23.85;27.37;101611.09;5068862;28;20052;-72
2022/08/28 11:11:13;;;;;;;4.07;1.52;;;;;;;23.98;25.61;101597.25;5064832;28;20032;-73
2022/08/28 11:13:53;;;;;;;4.22;2.08;;;;;;;24.08;25.50;101594.91;5062698;28;20041;-72
2022/08/28 11:16:24;;;;;;;3.83;1.90;;;;;;;24.15;25.90;101593.88;5065548;28;20029;-72
2022/08/28 11:19:19;;;;;;;3.72;1.70;;;;;;;24.24;25.32;101591.78;5069746;28;20040;-72
2022/08/28 11:21:52;;;;;;;4.53;1.60;;;;;;;24.33;25.52;101601.72;5065245;28;20067;-72
2022/08/28 11:24:32;;;;;;;2.75;1.45;;;;;;;24.41;25.36;101603.53;5069829;28;20071;-72
2022/08/28 11:27:16;;;;;;;4.13;1.70;;;;;;;24.45;24.23;101610.44;5068188;28;20545;-72
2022/08/28 11:30:26;;;;;;;3.63;1.50;;;;;;;24.42;24.33;101597.72;5071641;28;20044;-71
2022/08/28 11:32:58;;;;;;;6.15;2.00;;;;;;;24.49;24.48;101600.53;5025780;28;20057;-71
2022/08/28 11:35:50;;;;;;;3.40;1.73;;;;;;;24.47;23.85;101603.56;5066992;28;20165;-71
2022/08/28 11:38:52;;;;;;;4.07;1.67;;;;;;;24.48;24.72;101605.28;5064660;28;20046;-72
2022/08/28 11:41:23;;;;;;;5.53;1.80;;;;;;;24.43;24.54;101596.66;5063409;28;20431;-71
2022/08/28 11:44:12;;;;;;;4.45;1.75;;;;;;;24.46;24.76;101592.59;5061067;28;20097;-72
2022/08/28 11:46:42;;;;;;;3.20;1.58;;;;;;;24.47;24.95;101591.53;5067948;28;20498;-72
2022/08/28 11:49:42;;;;;;;3.40;1.70;;;;;;;24.48;24.70;101602.47;5067143;28;20394;-72
2022/08/28 11:52:32;;;;;;;3.88;1.70;;;;;;;24.50;24.04;101605.06;5066632;28;20471;-72
2022/08/28 11:55:13;;;;;;;3.75;1.63;;;;;;;24.56;24.76;101590.28;5066057;28;20049;-73
2022/08/28 11:57:52;;;;;;;4.55;1.77;;;;;;;24.61;23.84;101595.22;5064517;28;20092;-72